Terminal Aerodrome Forecast
Issued by NWS

Home | Current Version | Previous Version | Text Only | Print | Product List | Glossary On
Versions: 1 2 3 4 5 6 7 8 9 10 11 12 13 14 15 16 17 18 19 20 21 22 23 24
711
FTUS43 KDLH 202102 AAB
TAFBRD
TAF AMD
KBRD 202102Z 2021/2118 06008KT 3SM -RA BR OVC035
     FM202300 06012G20KT 4SM -SHRA OVC015
     FM210300 05010G18KT 3SM -SHRA OVC008
     FM210700 05006KT 5SM -SHRA OVC005
     FM211100 01006KT 3SM -DZ BR OVC004
     FM211400 33009KT P6SM OVC008=

USA.gov is the U.S. government's official web portal to all federal, state and local government web resources and services.